Time;durP1;ratioP1;P1;durP2;ratioP2;P2;SDS_P1;SDS_P2;PMS_P1;PMS_P2;Temp;Humidity;BMP_temperature;BMP_pressure;BME280_temperature;BME280_humidity;BME280_pressure;Samples;Min_cycle;Max_cycle;Signal;HPM_P1;HPM_P2
2021/07/08 00:00:26;;;;;;;3.47;2.45;;;17.70;77.80;;;;;;2073056;28;20072;-85
2021/07/08 00:01:28;;;;;;;4.30;2.70;;;17.70;77.90;;;;;;2080752;28;20103;-84
2021/07/08 00:02:29;;;;;;;3.38;2.38;;;17.70;78.00;;;;;;2070043;28;20061;-85
2021/07/08 00:03:29;;;;;;;4.50;2.70;;;17.70;78.00;;;;;;2059001;28;20038;-85
2021/07/08 00:04:30;;;;;;;3.53;2.45;;;17.70;78.00;;;;;;2064565;28;20026;-85
2021/07/08 00:05:36;;;;;;;3.47;2.28;;;17.70;78.10;;;;;;2068368;28;20045;-85
2021/07/08 00:06:36;;;;;;;3.40;2.65;;;17.70;78.20;;;;;;2066190;28;20034;-85
2021/07/08 00:07:38;;;;;;;3.78;2.53;;;17.70;78.10;;;;;;2072125;28;20076;-86
2021/07/08 00:08:38;;;;;;;3.30;2.47;;;17.70;78.20;;;;;;2064032;28;20850;-85
2021/07/08 00:09:40;;;;;;;3.90;2.38;;;17.70;78.20;;;;;;2073197;28;20171;-85
2021/07/08 00:10:46;;;;;;;3.38;2.38;;;17.70;78.20;;;;;;2064951;28;20034;-85
2021/07/08 00:11:47;;;;;;;3.75;2.28;;;17.70;78.30;;;;;;2073468;28;20096;-85
2021/07/08 00:12:47;;;;;;;4.78;2.60;;;17.70;78.90;;;;;;2064826;28;20037;-85
2021/07/08 00:13:48;;;;;;;3.20;2.28;;;17.60;78.20;;;;;;2065283;28;20018;-85
2021/07/08 00:14:49;;;;;;;3.13;2.33;;;17.60;78.20;;;;;;2064301;28;20022;-85
2021/07/08 00:15:51;;;;;;;2.92;2.38;;;17.60;78.30;;;;;;2057036;28;20031;-84
2021/07/08 00:16:51;;;;;;;3.05;2.20;;;17.60;78.30;;;;;;2072816;28;20501;-85
2021/07/08 00:17:52;;;;;;;3.42;2.50;;;17.60;78.40;;;;;;2064653;28;20062;-85
2021/07/08 00:18:53;;;;;;;3.45;2.30;;;17.60;78.40;;;;;;2064665;28;20405;-85
2021/07/08 00:19:54;;;;;;;3.22;2.25;;;17.60;78.40;;;;;;2064206;28;20046;-85
2021/07/08 00:20:55;;;;;;;4.68;2.38;;;17.60;78.40;;;;;;2064581;28;20015;-84
2021/07/08 00:21:55;;;;;;;3.83;2.30;;;17.60;78.50;;;;;;2064437;28;20062;-84
2021/07/08 00:22:56;;;;;;;2.80;2.20;;;17.60;78.50;;;;;;2064484;28;20039;-84
2021/07/08 00:23:57;;;;;;;3.28;1.98;;;17.60;79.20;;;;;;2064905;28;20022;-84
2021/07/08 00:24:57;;;;;;;3.17;2.22;;;17.60;78.60;;;;;;2072759;28;20475;-85
2021/07/08 00:25:58;;;;;;;3.42;2.40;;;17.60;78.70;;;;;;2073491;28;20022;-85
2021/07/08 00:26:59;;;;;;;2.55;2.10;;;17.50;78.70;;;;;;2068273;28;20031;-86
2021/07/08 00:28:00;;;;;;;3.95;2.55;;;17.50;78.70;;;;;;2064946;28;20065;-85
2021/07/08 00:29:01;;;;;;;3.50;2.40;;;17.60;78.80;;;;;;2078842;28;20025;-85
2021/07/08 00:30:03;;;;;;;3.60;2.50;;;17.50;78.80;;;;;;2071710;28;20030;-85
2021/07/08 00:31:03;;;;;;;3.10;2.40;;;17.50;78.80;;;;;;2073276;28;20021;-85
2021/07/08 00:32:04;;;;;;;3.60;2.42;;;17.50;78.80;;;;;;2072128;28;20476;-85
2021/07/08 00:33:06;;;;;;;2.75;2.33;;;17.50;78.80;;;;;;2056857;28;20066;-85
2021/07/08 00:34:06;;;;;;;2.65;2.20;;;17.50;78.90;;;;;;2065111;28;20091;-85
2021/07/08 00:35:08;;;;;;;3.63;2.50;;;17.50;79.00;;;;;;2073056;28;20105;-85
2021/07/08 00:36:08;;;;;;;4.15;2.38;;;17.50;79.00;;;;;;2064582;28;20590;-85
2021/07/08 00:37:09;;;;;;;3.42;2.25;;;17.50;79.10;;;;;;2057151;28;20101;-85
2021/07/08 00:38:10;;;;;;;4.05;2.70;;;17.50;79.10;;;;;;2064397;28;20035;-85
2021/07/08 00:39:10;;;;;;;3.28;2.20;;;17.50;79.10;;;;;;2048965;28;20024;-85
2021/07/08 00:40:13;;;;;;;3.33;2.40;;;17.50;79.10;;;;;;2064870;28;20109;-86
2021/07/08 00:41:13;;;;;;;3.83;2.30;;;17.50;79.10;;;;;;2066919;28;20022;-85
2021/07/08 00:42:14;;;;;;;4.10;2.30;;;17.50;79.10;;;;;;2064940;28;20058;-85
2021/07/08 00:43:15;;;;;;;4.07;2.67;;;17.50;79.10;;;;;;2057733;28;20058;-86
2021/07/08 00:44:15;;;;;;;3.83;2.75;;;17.50;79.10;;;;;;2061748;28;20038;-85
2021/07/08 00:45:19;;;;;;;3.78;2.40;;;17.50;79.10;;;;;;2078553;28;20022;-84
2021/07/08 00:46:20;;;;;;;4.28;2.58;;;17.50;79.10;;;;;;2075962;28;19999;-84
2021/07/08 00:47:21;;;;;;;3.13;2.47;;;17.50;79.10;;;;;;2075774;28;20011;-84
2021/07/08 00:48:21;;;;;;;3.42;2.58;;;17.50;79.20;;;;;;2080938;28;20030;-84
2021/07/08 00:49:22;;;;;;;4.15;2.40;;;17.50;79.20;;;;;;2081102;28;20062;-84
2021/07/08 00:50:27;;;;;;;4.05;2.90;;;17.40;79.10;;;;;;2073116;28;20093;-84
2021/07/08 00:51:28;;;;;;;3.35;2.60;;;17.40;79.20;;;;;;2073834;28;20034;-84
2021/07/08 00:52:29;;;;;;;3.78;2.58;;;17.40;79.20;;;;;;2072701;28;20030;-86
2021/07/08 00:53:29;;;;;;;4.13;2.67;;;17.40;79.20;;;;;;2076631;28;20034;-86
2021/07/08 00:54:30;;;;;;;3.22;2.60;;;17.40;79.30;;;;;;2070055;28;20492;-85
2021/07/08 00:55:31;;;;;;;3.50;2.20;;;17.40;79.30;;;;;;2080660;28;20014;-86
2021/07/08 00:56:34;;;;;;;3.83;2.72;;;17.40;79.40;;;;;;2089915;28;20026;-84
2021/07/08 00:57:38;;;;;;;4.07;2.63;;;17.40;79.40;;;;;;2067293;28;20106;-84
2021/07/08 00:58:39;;;;;;;3.35;2.40;;;17.40;79.40;;;;;;2076924;28;20010;-85
2021/07/08 00:59:45;;;;;;;3.38;2.55;;;17.40;79.50;;;;;;2082095;28;20042;-85
2021/07/08 01:00:46;;;;;;;4.60;2.72;;;17.40;79.50;;;;;;2059435;28;20501;-85
2021/07/08 01:01:47;;;;;;;3.63;2.67;;;17.40;79.50;;;;;;2067970;28;20065;-85
2021/07/08 01:02:49;;;;;;;3.53;2.33;;;17.40;79.50;;;;;;2063718;28;20047;-85
2021/07/08 01:03:50;;;;;;;3.65;2.40;;;17.40;79.60;;;;;;2073353;28;20069;-86
2021/07/08 01:04:51;;;;;;;3.28;2.60;;;17.40;79.60;;;;;;2064843;28;20034;-85
2021/07/08 01:05:54;;;;;;;2.90;2.30;;;17.40;79.60;;;;;;2065280;28;20024;-86
2021/07/08 01:06:56;;;;;;;3.30;2.50;;;17.40;80.30;;;;;;2079911;28;20095;-85
2021/07/08 01:07:57;;;;;;;5.22;2.50;;;17.40;79.70;;;;;;2069245;28;20061;-85
2021/07/08 01:09:04;;;;;;;3.58;2.58;;;17.40;79.70;;;;;;2063495;28;20030;-85
2021/07/08 01:10:05;;;;;;;4.25;2.63;;;17.40;79.70;;;;;;2079880;28;20033;-86
2021/07/08 01:11:05;;;;;;;3.05;2.47;;;17.40;79.70;;;;;;2071846;28;20042;-85
2021/07/08 01:12:07;;;;;;;3.53;2.42;;;17.40;79.70;;;;;;2065373;28;20497;-86
2021/07/08 01:13:08;;;;;;;4.93;2.80;;;17.50;79.80;;;;;;2073710;28;20026;-85
2021/07/08 01:14:09;;;;;;;3.17;2.20;;;17.50;79.70;;;;;;2066115;28;20058;-85
2021/07/08 01:15:11;;;;;;;3.83;2.60;;;17.50;79.70;;;;;;2068355;28;20505;-85
2021/07/08 01:16:12;;;;;;;3.20;2.50;;;17.50;79.70;;;;;;2082872;28;20026;-84
2021/07/08 01:17:12;;;;;;;3.88;2.47;;;17.50;79.70;;;;;;2074370;28;20018;-85
2021/07/08 01:18:13;;;;;;;3.40;2.50;;;17.50;79.70;;;;;;2079859;28;20002;-84
2021/07/08 01:19:14;;;;;;;4.13;2.50;;;17.50;79.70;;;;;;2081690;28;20022;-85
2021/07/08 01:20:17;;;;;;;3.63;2.80;;;17.50;79.70;;;;;;2066721;28;20027;-85
2021/07/08 01:21:20;;;;;;;3.90;2.42;;;17.50;79.70;;;;;;2072958;28;20018;-85
2021/07/08 01:22:20;;;;;;;3.15;2.30;;;17.50;79.80;;;;;;2073035;28;20026;-86
2021/07/08 01:23:21;;;;;;;3.75;2.60;;;17.50;79.70;;;;;;2065040;28;20570;-86
2021/07/08 01:24:22;;;;;;;4.97;2.70;;;17.50;79.80;;;;;;2064726;28;20452;-86
2021/07/08 01:25:23;;;;;;;3.53;2.35;;;17.50;79.70;;;;;;2072904;28;20026;-86
2021/07/08 01:26:24;;;;;;;4.00;2.42;;;17.50;79.70;;;;;;2072949;28;20033;-85
2021/07/08 01:27:25;;;;;;;3.45;2.30;;;17.50;79.80;;;;;;2072343;28;20508;-85
2021/07/08 01:28:26;;;;;;;3.63;2.40;;;17.50;79.80;;;;;;2072284;28;20029;-85
2021/07/08 01:29:28;;;;;;;3.13;2.45;;;17.50;79.80;;;;;;2072799;28;20030;-86
2021/07/08 01:30:29;;;;;;;4.05;2.67;;;17.50;79.70;;;;;;2065017;28;20109;-86
2021/07/08 01:31:30;;;;;;;4.10;2.55;;;17.50;79.70;;;;;;2064200;28;20045;-84
2021/07/08 01:32:30;;;;;;;3.30;2.50;;;17.50;79.70;;;;;;2054717;28;20515;-85
2021/07/08 01:33:31;;;;;;;3.72;2.60;;;17.50;79.80;;;;;;2063807;28;20493;-85
2021/07/08 01:34:32;;;;;;;3.92;2.85;;;17.50;79.80;;;;;;2073076;28;20500;-85
2021/07/08 01:35:33;;;;;;;3.35;2.40;;;17.50;79.80;;;;;;2072525;28;20527;-85
2021/07/08 01:36:33;;;;;;;3.65;2.40;;;17.50;79.80;;;;;;2082703;28;20132;-85
2021/07/08 01:37:34;;;;;;;3.70;2.50;;;17.50;79.80;;;;;;2071941;28;20040;-85
2021/07/08 01:38:35;;;;;;;4.55;2.53;;;17.50;79.90;;;;;;2065236;28;20559;-85
2021/07/08 01:39:36;;;;;;;3.80;2.40;;;17.50;79.80;;;;;;2074180;28;20034;-85
2021/07/08 01:40:39;;;;;;;3.70;2.60;;;17.50;79.80;;;;;;2065666;28;20509;-85
2021/07/08 01:41:40;;;;;;;4.18;2.70;;;17.50;79.90;;;;;;2050778;28;20163;-85
2021/07/08 01:42:41;;;;;;;3.00;2.30;;;17.60;79.90;;;;;;2062085;28;20523;-85
2021/07/08 01:43:42;;;;;;;3.45;2.50;;;17.60;80.60;;;;;;2066196;28;20050;-85
2021/07/08 01:44:43;;;;;;;3.20;2.40;;;17.60;80.00;;;;;;2074129;28;20026;-84
2021/07/08 01:45:44;;;;;;;3.72;2.42;;;17.60;80.10;;;;;;2066089;28;20023;-85
2021/07/08 01:46:45;;;;;;;3.72;2.40;;;17.60;80.10;;;;;;2073958;28;20038;-85
2021/07/08 01:47:46;;;;;;;6.95;2.50;;;17.60;80.20;;;;;;2065712;28;20084;-85
2021/07/08 01:48:47;;;;;;;2.90;2.42;;;17.50;80.20;;;;;;2066019;28;20556;-85
2021/07/08 01:49:48;;;;;;;3.40;2.33;;;17.60;80.30;;;;;;2069835;28;20029;-85
2021/07/08 01:50:48;;;;;;;4.40;2.33;;;17.50;80.30;;;;;;2065695;28;20030;-85
2021/07/08 01:51:50;;;;;;;3.50;2.50;;;17.60;80.40;;;;;;2065350;28;20030;-85
2021/07/08 01:52:51;;;;;;;3.92;2.75;;;17.60;80.40;;;;;;2058044;28;20029;-85
2021/07/08 01:53:52;;;;;;;3.22;2.30;;;17.60;80.40;;;;;;2060750;28;20108;-85
2021/07/08 01:54:53;;;;;;;3.55;2.42;;;17.60;80.40;;;;;;2073417;28;20033;-85
2021/07/08 01:55:56;;;;;;;3.95;2.55;;;17.60;80.40;;;;;;2065641;28;20109;-85
2021/07/08 01:56:57;;;;;;;3.40;2.65;;;17.60;80.40;;;;;;2074746;28;20034;-85
2021/07/08 01:58:00;;;;;;;3.35;2.60;;;17.60;80.50;;;;;;2065972;28;20480;-85
2021/07/08 01:59:01;;;;;;;3.55;2.50;;;17.60;80.60;;;;;;2066830;28;20022;-85
2021/07/08 02:00:02;;;;;;;3.67;2.70;;;17.60;80.60;;;;;;2081440;28;20030;-84
2021/07/08 02:01:03;;;;;;;3.15;2.50;;;17.70;80.70;;;;;;2050900;28;20078;-85
2021/07/08 02:02:04;;;;;;;3.58;2.50;;;17.60;80.80;;;;;;2061477;28;20414;-85
2021/07/08 02:03:05;;;;;;;3.67;2.50;;;17.60;80.80;;;;;;2072976;28;20049;-85
2021/07/08 02:04:05;;;;;;;3.28;2.53;;;17.70;80.90;;;;;;2073778;28;20026;-85
2021/07/08 02:05:07;;;;;;;3.65;2.70;;;17.70;80.90;;;;;;2073947;28;20505;-85
2021/07/08 02:06:08;;;;;;;4.88;2.92;;;17.70;81.00;;;;;;2075753;28;20026;-85
2021/07/08 02:07:09;;;;;;;3.72;2.72;;;17.70;81.10;;;;;;2073568;28;20496;-85
2021/07/08 02:08:10;;;;;;;3.53;2.50;;;17.70;81.10;;;;;;2066052;28;20030;-85
2021/07/08 02:09:10;;;;;;;3.15;2.60;;;17.70;81.20;;;;;;2065802;28;20440;-85
2021/07/08 02:10:14;;;;;;;3.75;2.63;;;17.70;81.20;;;;;;2065905;28;20486;-85
2021/07/08 02:11:15;;;;;;;3.33;2.60;;;17.70;81.20;;;;;;2073908;28;20141;-84
2021/07/08 02:12:16;;;;;;;4.97;2.95;;;17.70;81.20;;;;;;2081783;28;20029;-85
2021/07/08 02:13:17;;;;;;;3.35;2.40;;;17.70;81.30;;;;;;2065856;28;20034;-85
2021/07/08 02:14:17;;;;;;;3.63;2.42;;;17.70;81.30;;;;;;2065950;28;20037;-85
2021/07/08 02:15:19;;;;;;;3.63;2.58;;;17.70;81.30;;;;;;2073493;28;20045;-84
2021/07/08 02:16:20;;;;;;;3.83;2.47;;;17.70;81.40;;;;;;2065960;28;20086;-85
2021/07/08 02:17:20;;;;;;;3.60;2.53;;;17.70;81.40;;;;;;2067418;28;20026;-85
2021/07/08 02:18:21;;;;;;;3.85;2.50;;;17.70;81.40;;;;;;2073454;28;20037;-85
2021/07/08 02:19:22;;;;;;;3.72;2.67;;;17.70;81.50;;;;;;2058061;28;20497;-84
2021/07/08 02:20:23;;;;;;;4.10;2.78;;;17.70;81.50;;;;;;2065712;28;20026;-84
2021/07/08 02:21:24;;;;;;;3.45;2.50;;;17.70;81.50;;;;;;2072967;28;20139;-84
2021/07/08 02:22:24;;;;;;;3.72;2.67;;;17.70;81.60;;;;;;2065435;28;20037;-85
2021/07/08 02:23:26;;;;;;;3.50;2.50;;;17.70;81.70;;;;;;2073272;28;20033;-84
2021/07/08 02:24:26;;;;;;;4.32;2.60;;;17.70;81.70;;;;;;2081655;28;20025;-84
2021/07/08 02:25:27;;;;;;;3.65;2.63;;;17.60;81.70;;;;;;2073444;28;20033;-87
2021/07/08 02:26:28;;;;;;;3.60;2.70;;;17.60;81.70;;;;;;2065640;28;20031;-86
2021/07/08 02:27:28;;;;;;;3.60;2.60;;;17.60;81.80;;;;;;2065818;28;20505;-85
2021/07/08 02:28:29;;;;;;;3.67;2.83;;;17.60;81.90;;;;;;2065847;28;20027;-85
2021/07/08 02:29:30;;;;;;;3.78;2.50;;;17.60;81.90;;;;;;2073775;28;20400;-85
2021/07/08 02:30:31;;;;;;;3.70;2.70;;;17.60;81.90;;;;;;2065258;28;20049;-84
2021/07/08 02:31:31;;;;;;;3.88;2.60;;;17.60;81.90;;;;;;2056804;28;20061;-85
2021/07/08 02:32:32;;;;;;;3.60;2.70;;;17.60;82.00;;;;;;2065667;28;20093;-85
2021/07/08 02:33:33;;;;;;;6.88;3.22;;;17.60;82.00;;;;;;2073722;28;20389;-85
2021/07/08 02:34:36;;;;;;;4.20;2.80;;;17.60;82.00;;;;;;2082056;28;20044;-85
2021/07/08 02:35:37;;;;;;;3.50;2.88;;;17.60;82.10;;;;;;2070165;28;20027;-84
2021/07/08 02:36:37;;;;;;;3.72;2.92;;;17.50;82.00;;;;;;2057806;28;20054;-85
2021/07/08 02:37:39;;;;;;;4.25;3.03;;;17.50;82.10;;;;;;2065722;28;20129;-84
2021/07/08 02:38:39;;;;;;;3.72;2.72;;;17.50;82.10;;;;;;2073484;28;20034;-85
2021/07/08 02:39:40;;;;;;;3.30;2.60;;;17.50;82.20;;;;;;2073638;28;20479;-85
2021/07/08 02:40:41;;;;;;;3.75;2.67;;;17.50;82.20;;;;;;2065517;28;20517;-85
2021/07/08 02:41:42;;;;;;;3.60;2.90;;;17.50;82.30;;;;;;2065663;28;20518;-85
2021/07/08 02:42:50;;;;;;;4.55;2.90;;;17.40;82.40;;;;;;2073601;28;20026;-85
2021/07/08 02:43:51;;;;;;;3.88;2.95;;;17.40;82.40;;;;;;2065651;28;20038;-84
2021/07/08 02:44:51;;;;;;;3.60;2.83;;;17.40;82.60;;;;;;2057668;28;20592;-85
2021/07/08 02:45:52;;;;;;;3.80;2.75;;;17.40;82.60;;;;;;2056083;28;20027;-84
2021/07/08 02:46:53;;;;;;;4.35;3.08;;;17.40;82.70;;;;;;2064694;28;20045;-84
2021/07/08 02:47:54;;;;;;;3.22;2.60;;;17.40;82.70;;;;;;2065745;28;20489;-84
2021/07/08 02:48:56;;;;;;;4.05;2.90;;;17.40;82.70;;;;;;2065005;28;20256;-84
2021/07/08 02:49:57;;;;;;;4.28;2.67;;;17.40;82.80;;;;;;2066067;28;20030;-84
2021/07/08 02:50:58;;;;;;;3.92;2.97;;;17.40;82.80;;;;;;2057108;28;20053;-85
2021/07/08 02:51:58;;;;;;;4.72;3.15;;;17.40;82.80;;;;;;2065191;28;20512;-84
2021/07/08 02:52:59;;;;;;;3.67;2.92;;;17.30;82.80;;;;;;2081360;28;20029;-84
2021/07/08 02:54:00;;;;;;;4.85;3.22;;;17.30;82.80;;;;;;2081170;28;20479;-85
2021/07/08 02:55:00;;;;;;;4.68;3.38;;;17.30;82.80;;;;;;2073255;28;20397;-84
2021/07/08 02:56:01;;;;;;;4.13;3.33;;;17.30;82.90;;;;;;2057038;28;20500;-85
2021/07/08 02:57:02;;;;;;;4.40;3.30;;;17.30;82.90;;;;;;2057529;28;20039;-85
2021/07/08 02:58:03;;;;;;;4.60;3.20;;;17.30;82.90;;;;;;2073892;28;20030;-85
2021/07/08 02:59:04;;;;;;;4.32;3.28;;;17.20;82.90;;;;;;2073768;28;20092;-85
2021/07/08 03:00:08;;;;;;;6.57;3.38;;;17.20;83.00;;;;;;2057428;28;20421;-85
2021/07/08 03:01:08;;;;;;;4.30;3.20;;;17.20;83.10;;;;;;2066024;28;20536;-85
2021/07/08 03:02:09;;;;;;;4.30;3.20;;;17.20;83.10;;;;;;2070295;28;20057;-85
2021/07/08 03:03:11;;;;;;;4.78;3.17;;;17.20;83.20;;;;;;2065507;28;20408;-85
2021/07/08 03:04:11;;;;;;;3.92;3.00;;;17.20;83.20;;;;;;2065039;28;20061;-84
2021/07/08 03:05:13;;;;;;;4.70;3.13;;;17.20;83.20;;;;;;2065449;28;20080;-85
2021/07/08 03:06:14;;;;;;;4.95;3.08;;;17.20;83.30;;;;;;2065351;28;20030;-85
2021/07/08 03:07:18;;;;;;;4.30;3.35;;;17.20;83.20;;;;;;2065493;28;20057;-85
2021/07/08 03:08:18;;;;;;;4.95;3.40;;;17.20;83.20;;;;;;2074144;28;20026;-85
2021/07/08 03:09:19;;;;;;;4.40;3.25;;;17.20;83.20;;;;;;2071391;28;20555;-84
2021/07/08 03:10:22;;;;;;;4.38;3.28;;;17.20;83.20;;;;;;2073202;28;20032;-85
2021/07/08 03:11:23;;;;;;;5.38;3.30;;;17.20;83.20;;;;;;2081131;28;20018;-85
2021/07/08 03:12:24;;;;;;;4.82;3.40;;;17.20;83.10;;;;;;2081695;28;20052;-85
2021/07/08 03:13:24;;;;;;;5.38;3.35;;;17.20;83.00;;;;;;2065543;28;20073;-84
2021/07/08 03:14:25;;;;;;;4.18;3.22;;;17.20;83.00;;;;;;2062912;28;20145;-85
2021/07/08 03:15:27;;;;;;;4.00;3.25;;;17.20;82.90;;;;;;2057035;28;20035;-83
2021/07/08 03:16:27;;;;;;;6.13;3.50;;;17.20;82.90;;;;;;2057560;28;20031;-85
2021/07/08 03:17:28;;;;;;;5.47;3.28;;;17.20;82.90;;;;;;2066453;28;20121;-85
2021/07/08 03:18:29;;;;;;;4.20;3.28;;;17.20;82.90;;;;;;2073340;28;20124;-85
2021/07/08 03:19:30;;;;;;;4.20;3.25;;;17.30;82.90;;;;;;2065466;28;20081;-85
2021/07/08 03:20:34;;;;;;;4.35;3.15;;;17.30;82.90;;;;;;2057113;28;20532;-85
2021/07/08 03:21:35;;;;;;;5.07;3.63;;;17.30;82.90;;;;;;2077107;28;20033;-84
2021/07/08 03:22:36;;;;;;;4.35;3.25;;;17.30;82.90;;;;;;2072336;28;20164;-84
2021/07/08 03:23:36;;;;;;;5.47;3.67;;;17.30;82.80;;;;;;2056422;28;20043;-84
2021/07/08 03:24:37;;;;;;;6.25;3.22;;;17.30;82.70;;;;;;2057197;28;20034;-84
2021/07/08 03:25:38;;;;;;;4.93;3.40;;;17.30;82.70;;;;;;2065179;28;20030;-84
2021/07/08 03:26:38;;;;;;;4.85;3.30;;;17.30;82.70;;;;;;2064747;28;20050;-84
2021/07/08 03:27:40;;;;;;;3.80;3.10;;;17.30;82.70;;;;;;2056861;28;20049;-85
2021/07/08 03:28:41;;;;;;;4.28;3.20;;;17.30;82.70;;;;;;2065428;28;20121;-85
2021/07/08 03:29:41;;;;;;;4.93;3.38;;;17.30;82.70;;;;;;2065349;28;20030;-85
2021/07/08 03:30:42;;;;;;;5.13;3.70;;;17.30;82.70;;;;;;2073249;28;20072;-84
2021/07/08 03:31:43;;;;;;;4.28;3.30;;;17.30;82.70;;;;;;2056337;28;20464;-85
2021/07/08 03:32:43;;;;;;;4.55;3.08;;;17.40;82.70;;;;;;2057026;28;20397;-85
2021/07/08 03:33:44;;;;;;;4.53;3.40;;;17.40;82.70;;;;;;2065066;28;20126;-84
2021/07/08 03:34:45;;;;;;;4.47;3.20;;;17.40;82.60;;;;;;2065346;28;20030;-84
2021/07/08 03:35:46;;;;;;;4.18;3.25;;;17.40;82.60;;;;;;2064542;28;20034;-84
2021/07/08 03:36:46;;;;;;;4.45;2.90;;;17.40;82.60;;;;;;2058901;28;20050;-84
2021/07/08 03:37:47;;;;;;;7.00;3.42;;;17.40;82.50;;;;;;2056768;28;20035;-84
2021/07/08 03:38:48;;;;;;;4.65;3.55;;;17.40;82.40;;;;;;2064553;28;20057;-84
2021/07/08 03:39:48;;;;;;;4.60;3.22;;;17.40;82.40;;;;;;2065027;28;20366;-85
2021/07/08 03:40:49;;;;;;;4.00;3.13;;;17.40;82.40;;;;;;2049074;28;20031;-84
2021/07/08 03:41:50;;;;;;;4.35;3.25;;;17.40;82.30;;;;;;2063825;28;20467;-84
2021/07/08 03:42:51;;;;;;;4.00;3.05;;;17.50;82.40;;;;;;2073277;28;20034;-84
2021/07/08 03:43:52;;;;;;;4.70;3.05;;;17.50;82.30;;;;;;2073035;28;20269;-83
2021/07/08 03:44:54;;;;;;;6.07;3.25;;;17.50;82.30;;;;;;2073254;28;20404;-84
2021/07/08 03:45:54;;;;;;;4.05;3.28;;;17.50;82.30;;;;;;2071566;28;20440;-84
2021/07/08 03:46:55;;;;;;;5.20;3.17;;;17.50;82.30;;;;;;2072657;28;20033;-84
2021/07/08 03:47:56;;;;;;;4.22;3.00;;;17.50;82.30;;;;;;2065052;28;20042;-84
2021/07/08 03:48:56;;;;;;;4.38;3.20;;;17.50;82.30;;;;;;2073971;28;20030;-85
2021/07/08 03:49:57;;;;;;;4.15;2.75;;;17.50;82.30;;;;;;2064635;28;20456;-85
2021/07/08 03:50:58;;;;;;;4.80;3.20;;;17.50;82.30;;;;;;2072649;28;20520;-85
2021/07/08 03:51:59;;;;;;;5.00;3.28;;;17.50;82.30;;;;;;2073219;28;20181;-85
2021/07/08 03:52:59;;;;;;;4.95;3.15;;;17.50;82.30;;;;;;2056704;28;20031;-85
2021/07/08 03:54:00;;;;;;;3.90;2.95;;;17.50;82.90;;;;;;2064635;28;20488;-84
2021/07/08 03:55:01;;;;;;;4.20;3.03;;;17.50;82.30;;;;;;2073200;28;20033;-84
2021/07/08 03:56:02;;;;;;;4.30;3.20;;;17.50;82.30;;;;;;2056871;28;20467;-85
2021/07/08 03:57:03;;;;;;;4.22;3.28;;;17.50;82.30;;;;;;2048852;28;20079;-84
2021/07/08 03:58:04;;;;;;;4.32;3.10;;;17.50;82.30;;;;;;2048996;28;20031;-84
2021/07/08 03:59:04;;;;;;;3.63;3.05;;;17.50;82.30;;;;;;2057210;28;20456;-85
2021/07/08 04:00:06;;;;;;;4.32;2.90;;;17.50;82.30;;;;;;2064762;28;20520;-85
2021/07/08 04:01:06;;;;;;;4.57;3.00;;;17.50;82.30;;;;;;2063446;28;20089;-85
2021/07/08 04:02:07;;;;;;;4.38;3.10;;;17.60;82.40;;;;;;2060361;28;20569;-85
2021/07/08 04:03:13;;;;;;;4.78;2.97;;;17.60;82.40;;;;;;2080139;28;20139;-85
2021/07/08 04:04:14;;;;;;;3.85;3.20;;;17.60;82.30;;;;;;2073447;28;20119;-85
2021/07/08 04:05:14;;;;;;;5.35;3.38;;;17.60;82.30;;;;;;2056869;28;20485;-85
2021/07/08 04:06:15;;;;;;;4.22;2.90;;;17.60;82.30;;;;;;2064597;28;20133;-85
2021/07/08 04:07:16;;;;;;;4.05;2.92;;;17.60;82.30;;;;;;2065022;28;20404;-85
2021/07/08 04:08:17;;;;;;;3.95;3.20;;;17.60;82.30;;;;;;2056922;28;20397;-85
2021/07/08 04:09:17;;;;;;;4.63;2.90;;;17.70;82.30;;;;;;2061393;28;20018;-85
2021/07/08 04:10:18;;;;;;;4.05;2.58;;;17.70;82.30;;;;;;2064035;28;20125;-85
2021/07/08 04:11:20;;;;;;;4.30;3.05;;;17.70;82.30;;;;;;2073135;28;20048;-85
2021/07/08 04:12:20;;;;;;;4.45;2.90;;;17.70;82.30;;;;;;2072171;28;20084;-85
2021/07/08 04:13:21;;;;;;;3.53;2.78;;;17.70;82.20;;;;;;2067812;28;20448;-85
2021/07/08 04:14:22;;;;;;;4.05;3.00;;;17.70;82.20;;;;;;2067551;28;20121;-86
2021/07/08 04:15:23;;;;;;;3.70;2.80;;;17.70;82.20;;;;;;2084545;28;20073;-85
2021/07/08 04:16:24;;;;;;;4.28;2.92;;;17.70;82.20;;;;;;2083732;28;20025;-85
2021/07/08 04:17:25;;;;;;;4.30;2.80;;;17.70;82.20;;;;;;2070196;28;20027;-85
2021/07/08 04:18:25;;;;;;;4.20;3.05;;;17.80;82.90;;;;;;2067234;28;20034;-86
2021/07/08 04:19:26;;;;;;;4.65;2.80;;;17.70;82.30;;;;;;2065454;28;20113;-85
2021/07/08 04:20:28;;;;;;;3.70;2.90;;;17.70;82.30;;;;;;2073311;28;20046;-84
2021/07/08 04:21:28;;;;;;;4.28;3.20;;;17.80;82.40;;;;;;2063396;28;20057;-85
2021/07/08 04:22:30;;;;;;;3.40;2.72;;;17.70;82.40;;;;;;2073076;28;20080;-85
2021/07/08 04:23:30;;;;;;;3.47;3.00;;;17.80;82.40;;;;;;2064935;28;20425;-85
2021/07/08 04:24:31;;;;;;;4.03;3.10;;;17.80;82.40;;;;;;2064749;28;20116;-85
2021/07/08 04:25:33;;;;;;;3.78;2.60;;;17.80;82.40;;;;;;2072523;28;20084;-83
2021/07/08 04:26:33;;;;;;;5.30;2.80;;;17.80;82.50;;;;;;2073254;28;20512;-83
2021/07/08 04:27:35;;;;;;;4.53;3.00;;;17.80;82.40;;;;;;2076388;28;20038;-84
2021/07/08 04:28:37;;;;;;;3.80;2.75;;;17.80;82.40;;;;;;2072602;28;20064;-85
2021/07/08 04:29:38;;;;;;;4.25;3.08;;;17.80;82.40;;;;;;2065031;28;20112;-84
2021/07/08 04:30:39;;;;;;;4.93;2.90;;;17.80;82.40;;;;;;2057071;28;20540;-84
2021/07/08 04:31:40;;;;;;;5.10;2.85;;;17.90;82.40;;;;;;2056564;28;20090;-84
2021/07/08 04:32:41;;;;;;;4.03;3.13;;;17.90;82.40;;;;;;2051523;28;20090;-84
2021/07/08 04:33:43;;;;;;;3.97;2.90;;;17.90;82.40;;;;;;2060246;28;20025;-84
2021/07/08 04:34:44;;;;;;;4.50;3.00;;;17.90;82.30;;;;;;2072858;28;20531;-84
2021/07/08 04:35:45;;;;;;;3.75;2.83;;;17.90;82.30;;;;;;2072188;28;20026;-84
2021/07/08 04:36:46;;;;;;;3.65;2.80;;;17.90;82.30;;;;;;2064466;28;20065;-85
2021/07/08 04:37:48;;;;;;;3.80;3.00;;;17.90;82.20;;;;;;2056445;28;20027;-84
2021/07/08 04:38:52;;;;;;;3.70;3.05;;;17.90;82.20;;;;;;2073083;28;20026;-85
2021/07/08 04:39:53;;;;;;;4.07;2.67;;;17.90;82.20;;;;;;2072670;28;20030;-85
2021/07/08 04:40:54;;;;;;;3.75;2.92;;;18.00;82.30;;;;;;2065457;28;20032;-84
2021/07/08 04:41:54;;;;;;;3.80;3.03;;;18.00;82.80;;;;;;2074101;28;20484;-84
2021/07/08 04:42:55;;;;;;;3.85;3.00;;;18.00;82.90;;;;;;2048863;28;20533;-85
2021/07/08 04:43:56;;;;;;;4.57;2.97;;;18.00;82.30;;;;;;2057489;28;20105;-84
2021/07/08 04:44:56;;;;;;;4.85;3.33;;;18.00;82.30;;;;;;2076951;28;20021;-85
2021/07/08 04:45:57;;;;;;;5.13;3.30;;;18.00;82.30;;;;;;2064098;28;20504;-84
2021/07/08 04:47:00;;;;;;;5.63;3.22;;;18.00;82.30;;;;;;2040775;29;20046;-84
2021/07/08 04:48:01;;;;;;;4.30;3.28;;;18.00;82.30;;;;;;2064326;28;20030;-84
2021/07/08 04:49:02;;;;;;;4.55;3.13;;;18.00;82.40;;;;;;2073105;28;20408;-84
2021/07/08 04:50:04;;;;;;;5.35;3.00;;;18.00;82.40;;;;;;2064478;28;20053;-84
2021/07/08 04:51:05;;;;;;;6.00;3.47;;;18.00;82.40;;;;;;2065580;28;20524;-84
2021/07/08 04:52:06;;;;;;;4.38;3.10;;;18.00;82.50;;;;;;2064760;28;20034;-85
2021/07/08 04:53:07;;;;;;;4.18;3.08;;;18.00;82.50;;;;;;2080794;28;20511;-84
2021/07/08 04:54:08;;;;;;;5.57;3.30;;;18.00;82.50;;;;;;2071865;28;20077;-85
2021/07/08 04:55:10;;;;;;;4.60;3.30;;;18.00;82.50;;;;;;2070958;28;20036;-84
2021/07/08 04:56:11;;;;;;;3.97;3.10;;;18.00;82.50;;;;;;2075351;28;20058;-83
2021/07/08 04:57:11;;;;;;;4.18;3.35;;;18.00;82.50;;;;;;2075060;28;20011;-82
2021/07/08 04:58:12;;;;;;;4.38;3.40;;;18.00;82.50;;;;;;2075119;28;20030;-84
2021/07/08 04:59:13;;;;;;;4.88;3.45;;;18.10;82.60;;;;;;2083758;28;20010;-84
2021/07/08 05:00:17;;;;;;;4.72;3.15;;;18.10;82.50;;;;;;2082434;28;20037;-84
2021/07/08 05:01:18;;;;;;;4.97;3.40;;;18.10;82.50;;;;;;2063417;28;20054;-85
2021/07/08 05:02:19;;;;;;;5.13;3.65;;;18.10;82.40;;;;;;2056701;28;20054;-84
2021/07/08 05:03:19;;;;;;;4.47;3.60;;;18.10;82.40;;;;;;2073603;28;20021;-85
2021/07/08 05:04:20;;;;;;;5.05;3.45;;;18.10;82.40;;;;;;2056048;28;20527;-84
2021/07/08 05:05:21;;;;;;;5.88;3.95;;;18.10;82.40;;;;;;2063805;28;20038;-83
2021/07/08 05:06:22;;;;;;;4.55;3.53;;;18.20;82.40;;;;;;2089643;28;20018;-83
2021/07/08 05:07:23;;;;;;;5.00;3.75;;;18.20;82.40;;;;;;2072951;28;20041;-83
2021/07/08 05:08:23;;;;;;;4.55;3.67;;;18.20;82.40;;;;;;2074853;28;20028;-84
2021/07/08 05:09:24;;;;;;;5.88;3.75;;;18.20;82.40;;;;;;2082617;28;20042;-83
2021/07/08 05:10:24;;;;;;;5.00;3.70;;;18.20;82.50;;;;;;2070846;28;20493;-84
2021/07/08 05:11:25;;;;;;;6.57;3.72;;;18.20;82.50;;;;;;2074644;28;20708;-84
2021/07/08 05:12:26;;;;;;;5.47;3.92;;;18.20;82.50;;;;;;2072206;28;20029;-84
2021/07/08 05:13:27;;;;;;;5.80;4.00;;;18.20;82.50;;;;;;2066503;28;20031;-84
2021/07/08 05:14:27;;;;;;;4.57;3.72;;;18.20;83.20;;;;;;2073501;28;20038;-84
2021/07/08 05:15:28;;;;;;;5.10;3.40;;;18.30;82.60;;;;;;2071890;28;20030;-84
2021/07/08 05:16:29;;;;;;;5.45;3.80;;;18.20;82.50;;;;;;2074426;28;20508;-84
2021/07/08 05:17:29;;;;;;;5.20;3.42;;;18.30;82.50;;;;;;2065587;28;20587;-85
2021/07/08 05:18:30;;;;;;;4.53;3.35;;;18.40;82.50;;;;;;2059212;28;20138;-84